Time;durP1;ratioP1;P1;durP2;ratioP2;P2;SDS_P1;SDS_P2;PMS_P1;PMS_P2;Temp;Humidity;BMP_temperature;BMP_pressure;BME280_temperature;BME280_humidity;BME280_pressure;Samples;Min_cycle;Max_cycle;Signal;HPM_P1;HPM_P2
2023/08/10 00:00:09;;;;;;;6.68;3.17;;;13.80;99.90;;;;;;5010665;28;20018;-48
2023/08/10 00:02:35;;;;;;;6.07;2.75;;;13.90;99.90;;;;;;5010467;28;20101;-47
2023/08/10 00:05:00;;;;;;;9.02;2.90;;;13.90;99.90;;;;;;4992517;28;20105;-47
2023/08/10 00:07:26;;;;;;;7.43;2.97;;;14.00;99.90;;;;;;5010506;28;20101;-46
2023/08/10 00:09:51;;;;;;;4.20;2.40;;;14.00;99.90;;;;;;5010507;28;20096;-45
2023/08/10 00:12:17;;;;;;;10.73;3.22;;;14.00;99.90;;;;;;5010746;28;20465;-46
2023/08/10 00:14:42;;;;;;;9.48;3.58;;;14.10;99.90;;;;;;5009552;28;20042;-46
2023/08/10 00:17:08;;;;;;;3.65;2.58;;;14.10;99.90;;;;;;4992816;28;20389;-45
2023/08/10 00:19:33;;;;;;;12.70;2.50;;;14.10;99.90;;;;;;5010438;28;20112;-48
2023/08/10 00:21:59;;;;;;;4.63;2.40;;;14.10;99.90;;;;;;5010328;28;20018;-47
2023/08/10 00:24:25;;;;;;;5.25;2.60;;;14.10;99.90;;;;;;5009912;28;20026;-45
2023/08/10 00:26:50;;;;;;;3.92;2.28;;;14.20;99.90;;;;;;5010257;28;20065;-46
2023/08/10 00:29:16;;;;;;;3.40;2.38;;;14.20;99.90;;;;;;5010336;28;20073;-49
2023/08/10 00:31:41;;;;;;;7.03;2.13;;;14.10;99.90;;;;;;5010082;28;20041;-47
2023/08/10 00:34:07;;;;;;;4.05;2.50;;;14.10;99.90;;;;;;5009684;28;20022;-46
2023/08/10 00:36:32;;;;;;;5.43;2.70;;;14.10;99.90;;;;;;5010176;28;20041;-45
2023/08/10 00:38:58;;;;;;;5.95;2.60;;;14.10;99.90;;;;;;5010131;28;20466;-47
2023/08/10 00:41:24;;;;;;;8.63;2.78;;;14.10;99.90;;;;;;5010140;28;20026;-47
2023/08/10 00:43:49;;;;;;;4.53;2.53;;;14.10;99.90;;;;;;4991981;28;20037;-45
2023/08/10 00:46:15;;;;;;;3.80;2.45;;;14.00;99.90;;;;;;5010094;28;20093;-45
2023/08/10 00:48:40;;;;;;;2.70;2.40;;;14.00;99.90;;;;;;5010131;28;20030;-45
2023/08/10 00:51:07;;;;;;;4.78;2.05;;;13.90;99.90;;;;;;5010126;28;20036;-45
2023/08/10 00:53:32;;;;;;;6.13;2.70;;;13.90;99.90;;;;;;5009567;28;20030;-46
2023/08/10 00:56:00;;;;;;;3.58;2.47;;;13.90;99.90;;;;;;5010190;28;20489;-46
2023/08/10 00:58:27;;;;;;;3.30;2.30;;;13.90;99.90;;;;;;5010029;28;20030;-45
2023/08/10 01:00:52;;;;;;;9.35;2.75;;;13.80;99.90;;;;;;4992550;28;20022;-46
2023/08/10 01:03:18;;;;;;;3.47;2.22;;;13.70;99.90;;;;;;5012054;28;20040;-45
2023/08/10 01:05:55;;;;;;;7.32;3.17;;;13.60;99.90;;;;;;5013737;28;20447;-46
2023/08/10 01:08:45;;;;;;;6.43;2.28;;;13.70;99.90;;;;;;4996138;28;20054;-46
2023/08/10 01:11:33;;;;;;;9.05;3.15;;;13.60;99.90;;;;;;4995965;28;20030;-47
2023/08/10 01:14:17;;;;;;;5.45;2.47;;;13.60;99.90;;;;;;5013213;28;20163;-46
2023/08/10 01:16:44;;;;;;;6.32;2.60;;;13.50;99.90;;;;;;5013635;28;20033;-46
2023/08/10 01:19:25;;;;;;;5.68;3.20;;;13.40;99.90;;;;;;4995871;28;20392;-46
2023/08/10 01:22:18;;;;;;;6.95;2.58;;;13.40;99.90;;;;;;5013472;28;20026;-47
2023/08/10 01:24:45;;;;;;;4.50;2.60;;;13.40;99.90;;;;;;5013043;28;20028;-47
2023/08/10 01:27:12;;;;;;;4.90;2.92;;;13.40;99.90;;;;;;5013556;28;20018;-46
2023/08/10 01:29:38;;;;;;;4.93;2.60;;;13.50;99.90;;;;;;5013308;28;20026;-46
2023/08/10 01:32:04;;;;;;;5.28;2.70;;;13.50;99.90;;;;;;5013153;28;20219;-46
2023/08/10 01:34:30;;;;;;;5.28;2.28;;;13.60;99.90;;;;;;5012790;28;20025;-46
2023/08/10 01:36:55;;;;;;;6.28;2.95;;;13.70;99.90;;;;;;5013241;28;20076;-46
2023/08/10 01:39:21;;;;;;;3.50;2.60;;;13.70;99.90;;;;;;5013162;28;20024;-46
2023/08/10 01:41:46;;;;;;;4.25;2.97;;;13.70;99.90;;;;;;5013094;28;20033;-47
2023/08/10 01:44:12;;;;;;;5.18;2.60;;;13.70;99.90;;;;;;5012651;28;20465;-47
2023/08/10 01:46:40;;;;;;;4.65;2.50;;;13.70;99.90;;;;;;5012841;28;20060;-46
2023/08/10 01:49:10;;;;;;;7.45;2.83;;;13.70;99.90;;;;;;5013242;28;20029;-47
2023/08/10 01:51:39;;;;;;;4.90;2.80;;;13.70;99.90;;;;;;5013288;28;20038;-48
2023/08/10 01:54:06;;;;;;;6.15;2.83;;;13.70;99.90;;;;;;5012474;28;20344;-49
2023/08/10 01:56:32;;;;;;;4.25;2.63;;;13.70;99.90;;;;;;5012789;28;20034;-48
2023/08/10 01:58:58;;;;;;;4.82;2.80;;;13.70;99.90;;;;;;4995386;28;20144;-44
2023/08/10 02:01:24;;;;;;;5.35;2.92;;;13.70;99.90;;;;;;5012706;28;20534;-44
2023/08/10 02:03:49;;;;;;;3.13;2.65;;;13.70;99.90;;;;;;4994531;28;20044;-45
2023/08/10 02:06:15;;;;;;;3.13;2.67;;;13.70;99.90;;;;;;5012635;28;20041;-45
2023/08/10 02:08:40;;;;;;;3.83;2.60;;;13.70;99.90;;;;;;5012635;28;20073;-44
2023/08/10 02:11:06;;;;;;;5.55;3.08;;;13.70;99.90;;;;;;5012779;28;20029;-44
2023/08/10 02:13:31;;;;;;;5.47;3.00;;;13.70;99.90;;;;;;5011588;28;20026;-45
2023/08/10 02:15:57;;;;;;;3.20;2.70;;;13.70;99.90;;;;;;5012682;28;20117;-45
2023/08/10 02:18:22;;;;;;;6.03;3.22;;;13.70;99.90;;;;;;5012369;28;20033;-44
2023/08/10 02:20:48;;;;;;;6.20;2.97;;;13.60;99.90;;;;;;5012405;28;20385;-44
2023/08/10 02:23:13;;;;;;;6.13;2.88;;;13.60;99.90;;;;;;5012059;28;20466;-45
2023/08/10 02:25:39;;;;;;;5.85;3.13;;;13.60;99.90;;;;;;5011985;28;20050;-44
2023/08/10 02:28:05;;;;;;;4.40;2.75;;;13.50;99.90;;;;;;5012677;28;20022;-44
2023/08/10 02:30:30;;;;;;;5.95;2.72;;;13.40;99.90;;;;;;5012147;28;20030;-43
2023/08/10 02:32:56;;;;;;;4.75;3.00;;;13.40;99.90;;;;;;5011706;28;20036;-44
2023/08/10 02:35:22;;;;;;;4.22;3.00;;;13.40;99.90;;;;;;5011823;28;20058;-45
2023/08/10 02:37:47;;;;;;;3.88;3.03;;;13.40;99.90;;;;;;5011965;28;20477;-45
2023/08/10 02:40:14;;;;;;;4.38;2.45;;;13.40;99.90;;;;;;5011991;28;20033;-45
2023/08/10 02:42:42;;;;;;;4.07;2.90;;;13.30;99.90;;;;;;5011769;28;20022;-45
2023/08/10 02:45:08;;;;;;;3.08;2.78;;;13.30;99.90;;;;;;5011402;28;20064;-43
2023/08/10 02:47:34;;;;;;;5.38;3.10;;;13.30;99.90;;;;;;5011756;28;20080;-44
2023/08/10 02:50:00;;;;;;;4.88;2.88;;;13.20;99.90;;;;;;5011824;28;20428;-48
2023/08/10 02:52:25;;;;;;;5.97;2.58;;;13.20;99.90;;;;;;5011763;28;20034;-49
2023/08/10 02:54:51;;;;;;;14.52;3.30;;;13.10;99.90;;;;;;4993611;28;20022;-50
2023/08/10 02:57:16;;;;;;;5.72;2.80;;;13.20;99.90;;;;;;5011731;28;20033;-47
2023/08/10 02:59:42;;;;;;;5.30;2.67;;;13.20;99.90;;;;;;5011465;28;20037;-50
2023/08/10 03:02:07;;;;;;;6.18;3.20;;;13.20;99.90;;;;;;5011631;28;20026;-47
2023/08/10 03:04:33;;;;;;;5.75;2.72;;;13.20;99.90;;;;;;5011192;28;20041;-45
2023/08/10 03:06:58;;;;;;;6.00;2.85;;;13.20;99.90;;;;;;5011499;28;20025;-45
2023/08/10 03:09:24;;;;;;;5.82;2.78;;;13.20;99.90;;;;;;4993827;28;20025;-44
2023/08/10 03:11:50;;;;;;;5.82;2.92;;;13.20;99.90;;;;;;5011303;28;20017;-44
2023/08/10 03:14:16;;;;;;;4.50;3.00;;;13.20;99.90;;;;;;5010817;28;20052;-45
2023/08/10 03:16:41;;;;;;;6.45;2.95;;;13.20;99.90;;;;;;4993607;28;20030;-44
2023/08/10 03:19:07;;;;;;;4.28;2.97;;;13.20;99.90;;;;;;4993701;28;20029;-45
2023/08/10 03:21:32;;;;;;;5.47;2.63;;;13.20;99.90;;;;;;5011302;28;20022;-46
2023/08/10 03:23:58;;;;;;;5.22;3.17;;;13.20;99.90;;;;;;5010724;28;20424;-44
2023/08/10 03:26:24;;;;;;;6.40;3.30;;;13.30;99.90;;;;;;5010353;28;20026;-45
2023/08/10 03:28:49;;;;;;;5.22;2.92;;;13.20;99.90;;;;;;5001888;28;20036;-46
2023/08/10 03:31:15;;;;;;;12.80;3.55;;;13.20;99.90;;;;;;5011197;28;20038;-45
2023/08/10 03:33:40;;;;;;;4.18;2.80;;;13.20;99.90;;;;;;5010929;28;20087;-45
2023/08/10 03:36:06;;;;;;;6.43;2.83;;;13.20;99.90;;;;;;5009107;28;20026;-44
2023/08/10 03:38:33;;;;;;;3.97;2.85;;;13.10;99.90;;;;;;5010787;28;20539;-48
2023/08/10 03:40:59;;;;;;;7.00;3.35;;;13.10;99.90;;;;;;5011033;28;20045;-45
2023/08/10 03:43:25;;;;;;;7.20;2.80;;;13.10;99.90;;;;;;5010656;28;20028;-45
2023/08/10 03:45:50;;;;;;;8.82;3.03;;;13.00;99.90;;;;;;5010517;28;20396;-45
2023/08/10 03:48:16;;;;;;;10.02;3.67;;;13.00;99.90;;;;;;5010798;28;20460;-45
2023/08/10 03:50:41;;;;;;;7.55;2.97;;;13.00;99.90;;;;;;5010671;28;20400;-44
2023/08/10 03:53:07;;;;;;;6.10;3.08;;;13.00;99.90;;;;;;5010879;28;20034;-44
2023/08/10 03:55:32;;;;;;;5.95;3.15;;;13.00;99.90;;;;;;5010596;28;20473;-44
2023/08/10 03:57:58;;;;;;;10.43;3.30;;;13.00;99.90;;;;;;5010766;28;20080;-45
2023/08/10 04:00:24;;;;;;;3.92;2.95;;;13.00;99.90;;;;;;5010642;28;20548;-46
2023/08/10 04:02:50;;;;;;;5.53;3.00;;;13.00;99.90;;;;;;5010473;28;20409;-45
2023/08/10 04:05:16;;;;;;;3.50;2.95;;;13.00;99.90;;;;;;5010142;28;20021;-45
2023/08/10 04:07:41;;;;;;;4.47;2.92;;;13.00;99.90;;;;;;5010394;28;20236;-45
2023/08/10 04:10:08;;;;;;;7.63;3.33;;;13.00;99.90;;;;;;4993117;28;20029;-44
2023/08/10 04:12:35;;;;;;;5.43;3.47;;;13.00;99.90;;;;;;5010444;28;20026;-44
2023/08/10 04:15:02;;;;;;;8.25;3.67;;;13.10;99.90;;;;;;5010012;28;20026;-45
2023/08/10 04:17:27;;;;;;;5.30;3.05;;;13.00;99.90;;;;;;5010660;28;20022;-48
2023/08/10 04:19:53;;;;;;;5.75;3.05;;;13.10;99.90;;;;;;5010532;28;20496;-44
2023/08/10 04:22:18;;;;;;;3.70;2.78;;;13.10;99.90;;;;;;5010288;28;20120;-45
2023/08/10 04:24:44;;;;;;;7.97;3.35;;;13.10;99.90;;;;;;5009898;28;20172;-44
2023/08/10 04:27:10;;;;;;;5.97;3.05;;;13.10;99.90;;;;;;5010342;28;20018;-50
2023/08/10 04:29:35;;;;;;;8.18;2.70;;;13.10;99.90;;;;;;5010374;28;20030;-45
2023/08/10 04:32:01;;;;;;;4.40;2.95;;;13.10;99.90;;;;;;5010042;28;20036;-46
2023/08/10 04:34:26;;;;;;;4.45;3.10;;;13.00;99.90;;;;;;5010286;28;20121;-45
2023/08/10 04:36:52;;;;;;;4.22;3.17;;;13.00;99.90;;;;;;5011472;28;20026;-44
2023/08/10 04:39:18;;;;;;;5.38;3.70;;;12.90;99.90;;;;;;5014108;28;20485;-47
2023/08/10 04:41:43;;;;;;;5.30;2.97;;;12.90;99.90;;;;;;5014073;28;20109;-44
2023/08/10 04:44:09;;;;;;;6.20;3.10;;;13.00;99.90;;;;;;4995983;28;20118;-45
2023/08/10 04:46:35;;;;;;;13.80;3.88;;;13.00;99.90;;;;;;5014100;28;20045;-44
2023/08/10 04:49:01;;;;;;;6.45;3.58;;;13.00;99.90;;;;;;5013978;28;20559;-45
2023/08/10 04:51:26;;;;;;;6.80;3.20;;;13.00;99.90;;;;;;5013928;28;20034;-45
2023/08/10 04:53:52;;;;;;;7.35;3.72;;;13.00;99.90;;;;;;4995764;28;20028;-45
2023/08/10 04:56:17;;;;;;;6.32;3.72;;;13.00;99.90;;;;;;5014039;28;20091;-46
2023/08/10 04:58:43;;;;;;;5.28;3.33;;;13.00;99.90;;;;;;5014238;28;20034;-45
2023/08/10 05:01:09;;;;;;;5.32;3.15;;;13.10;99.90;;;;;;5014025;28;20022;-46
2023/08/10 05:03:35;;;;;;;7.10;3.47;;;13.10;99.90;;;;;;4995977;28;20029;-45
2023/08/10 05:06:02;;;;;;;5.20;3.47;;;13.10;99.90;;;;;;4996071;28;20105;-46
2023/08/10 05:08:27;;;;;;;5.50;3.22;;;13.10;99.90;;;;;;5013706;28;20025;-45
2023/08/10 05:10:53;;;;;;;7.82;3.00;;;13.10;99.90;;;;;;5013580;28;20030;-47
2023/08/10 05:13:19;;;;;;;8.93;2.88;;;13.10;99.90;;;;;;5013360;28;20091;-46
2023/08/10 05:15:44;;;;;;;4.78;3.33;;;13.10;99.90;;;;;;5012868;28;20113;-45
2023/08/10 05:18:10;;;;;;;4.80;2.95;;;13.10;99.90;;;;;;4995891;28;20123;-45
2023/08/10 05:20:37;;;;;;;4.00;3.00;;;13.10;99.90;;;;;;5013675;28;20022;-46
2023/08/10 05:23:03;;;;;;;4.82;2.95;;;13.10;99.90;;;;;;5013217;28;20017;-45
2023/08/10 05:25:28;;;;;;;9.48;3.38;;;13.20;99.90;;;;;;4995562;28;20500;-45
2023/08/10 05:27:54;;;;;;;10.02;3.33;;;13.20;99.90;;;;;;5013636;28;20026;-46
2023/08/10 05:30:20;;;;;;;5.00;3.00;;;13.20;99.90;;;;;;4995694;28;20056;-45
2023/08/10 05:32:45;;;;;;;14.55;4.13;;;13.30;99.90;;;;;;4995471;28;20130;-47
2023/08/10 05:35:11;;;;;;;4.95;2.75;;;13.30;99.90;;;;;;5012692;28;20470;-45
2023/08/10 05:37:38;;;;;;;5.07;2.78;;;13.30;99.90;;;;;;4979528;28;20506;-47
2023/08/10 05:40:09;;;;;;;8.82;2.80;;;13.40;99.90;;;;;;5013000;28;20246;-46
2023/08/10 05:42:37;;;;;;;6.95;3.05;;;13.40;99.90;;;;;;4996308;28;20025;-46
2023/08/10 05:45:03;;;;;;;4.28;2.65;;;13.40;99.90;;;;;;5012712;28;20105;-46
2023/08/10 05:47:29;;;;;;;9.15;2.92;;;13.50;99.90;;;;;;5013151;28;20018;-48
2023/08/10 05:49:54;;;;;;;7.07;2.88;;;13.50;99.90;;;;;;5012427;28;20037;-46
2023/08/10 05:52:20;;;;;;;4.22;2.63;;;13.60;99.90;;;;;;5013021;28;20037;-45
2023/08/10 05:54:45;;;;;;;9.82;2.80;;;13.60;99.90;;;;;;5012572;28;20120;-46
2023/08/10 05:57:11;;;;;;;4.80;2.97;;;13.70;99.90;;;;;;5012854;28;20436;-46
2023/08/10 05:59:36;;;;;;;5.80;2.78;;;13.70;99.90;;;;;;5012760;28;20037;-46
2023/08/10 06:02:02;;;;;;;10.18;2.92;;;13.80;99.90;;;;;;4995067;28;20033;-46
2023/08/10 06:04:27;;;;;;;11.57;3.15;;;13.90;99.90;;;;;;5012170;28;20022;-49
2023/08/10 06:06:53;;;;;;;4.40;2.65;;;13.90;99.90;;;;;;5012627;28;20028;-46
2023/08/10 06:09:19;;;;;;;2.85;2.30;;;14.00;99.90;;;;;;5012733;28;20022;-52
2023/08/10 06:11:45;;;;;;;8.15;3.78;;;14.10;99.90;;;;;;5012514;28;20022;-46
2023/08/10 06:14:10;;;;;;;7.45;2.47;;;14.20;99.90;;;;;;4994746;28;20107;-46
2023/08/10 06:16:36;;;;;;;4.70;2.25;;;14.20;99.90;;;;;;5012874;28;20042;-49
2023/08/10 06:19:01;;;;;;;5.43;2.33;;;14.30;99.90;;;;;;5012759;28;20524;-46
2023/08/10 06:21:28;;;;;;;8.48;2.45;;;14.40;99.90;;;;;;4995171;28;20112;-45
2023/08/10 06:23:53;;;;;;;8.23;2.95;;;14.50;99.90;;;;;;5011980;28;20549;-47
2023/08/10 06:26:19;;;;;;;7.30;2.42;;;14.50;99.90;;;;;;5012558;28;20026;-47
2023/08/10 06:28:45;;;;;;;7.93;2.47;;;14.60;99.90;;;;;;5012493;28;20435;-46
2023/08/10 06:31:10;;;;;;;7.25;2.22;;;14.70;99.90;;;;;;5012452;28;20021;-46
2023/08/10 06:33:36;;;;;;;6.10;2.30;;;14.70;99.90;;;;;;5011857;28;20096;-46
2023/08/10 06:36:06;;;;;;;7.93;1.88;;;14.80;99.90;;;;;;5012242;28;20030;-46
2023/08/10 06:38:31;;;;;;;5.72;1.75;;;14.90;99.90;;;;;;4994574;28;20030;-49
2023/08/10 06:40:57;;;;;;;4.68;1.80;;;15.00;99.90;;;;;;5012148;28;20030;-46
2023/08/10 06:43:22;;;;;;;6.18;2.22;;;15.20;99.90;;;;;;4994400;28;20025;-46
2023/08/10 06:45:48;;;;;;;4.18;1.73;;;15.40;99.90;;;;;;5011971;28;20022;-47
2023/08/10 06:48:13;;;;;;;3.75;1.55;;;15.50;99.90;;;;;;5012111;28;20051;-47
2023/08/10 06:50:40;;;;;;;5.65;1.90;;;15.60;99.90;;;;;;5012120;28;20064;-45
2023/08/10 06:53:07;;;;;;;5.20;1.92;;;15.60;99.90;;;;;;4994178;28;20025;-45
2023/08/10 06:55:33;;;;;;;5.93;1.70;;;15.60;99.90;;;;;;4994105;28;20022;-47
2023/08/10 06:57:59;;;;;;;8.23;2.50;;;15.60;99.90;;;;;;5011612;28;20026;-47
2023/08/10 07:00:25;;;;;;;5.07;1.75;;;15.60;99.90;;;;;;5011509;28;20095;-45
2023/08/10 07:02:53;;;;;;;6.40;1.80;;;15.70;99.90;;;;;;5011503;28;20081;-47
2023/08/10 07:05:21;;;;;;;2.67;1.73;;;15.80;99.90;;;;;;5011220;28;20107;-45
2023/08/10 07:07:47;;;;;;;9.50;2.15;;;15.70;99.90;;;;;;5011579;28;20148;-47
2023/08/10 07:10:13;;;;;;;5.28;1.63;;;15.80;99.90;;;;;;5011653;28;20018;-49
2023/08/10 07:12:39;;;;;;;3.13;1.35;;;15.80;99.90;;;;;;5011527;28;20388;-45
2023/08/10 07:15:07;;;;;;;7.47;1.98;;;15.90;99.90;;;;;;4993148;28;20033;-45
2023/08/10 07:17:33;;;;;;;6.65;2.08;;;15.90;99.90;;;;;;5011437;28;20469;-46
2023/08/10 07:19:59;;;;;;;7.10;2.70;;;15.90;99.90;;;;;;5011412;28;20034;-47
2023/08/10 07:22:24;;;;;;;7.28;2.55;;;16.00;99.90;;;;;;5011305;28;20362;-46
2023/08/10 07:24:50;;;;;;;4.65;1.80;;;16.10;99.90;;;;;;5010807;28;20200;-48
2023/08/10 07:27:17;;;;;;;5.75;1.77;;;16.20;99.90;;;;;;5011317;28;20108;-47
2023/08/10 07:29:42;;;;;;;6.53;2.33;;;16.30;99.90;;;;;;4993531;28;20114;-47
2023/08/10 07:32:08;;;;;;;5.53;1.92;;;16.40;99.90;;;;;;5011035;28;20117;-46
2023/08/10 07:34:34;;;;;;;5.22;1.63;;;16.60;99.90;;;;;;4992929;28;20026;-48
2023/08/10 07:37:00;;;;;;;4.63;1.80;;;16.80;99.90;;;;;;5011060;28;20030;-46
2023/08/10 07:39:25;;;;;;;8.43;1.88;;;16.90;99.90;;;;;;5011048;28;20076;-46
2023/08/10 07:41:52;;;;;;;5.57;1.73;;;17.20;99.90;;;;;;5011058;28;20030;-47
2023/08/10 07:44:18;;;;;;;5.57;2.28;;;17.30;99.90;;;;;;5010516;28;20444;-46
2023/08/10 07:46:46;;;;;;;5.63;1.73;;;17.50;99.90;;;;;;5011226;28;20036;-47
2023/08/10 07:49:13;;;;;;;5.32;1.58;;;17.70;99.90;;;;;;5011330;28;20420;-47
2023/08/10 07:51:38;;;;;;;4.40;2.08;;;17.90;99.90;;;;;;5011477;28;20022;-47
2023/08/10 07:54:04;;;;;;;5.40;1.60;;;18.20;99.90;;;;;;5010679;28;20022;-46
2023/08/10 07:56:30;;;;;;;4.57;1.80;;;18.40;99.90;;;;;;5010996;28;20040;-45
2023/08/10 07:58:55;;;;;;;7.88;1.70;;;18.60;99.90;;;;;;5010676;28;20033;-47
2023/08/10 08:01:21;;;;;;;4.60;1.42;;;18.70;99.90;;;;;;5011031;28;20018;-46
2023/08/10 08:03:46;;;;;;;5.93;1.67;;;18.60;99.90;;;;;;5010289;28;20021;-46
2023/08/10 08:06:12;;;;;;;6.00;1.35;;;18.50;99.90;;;;;;5010695;28;20552;-45
2023/08/10 08:08:38;;;;;;;4.43;1.42;;;18.80;99.90;;;;;;5010689;28;20036;-47
2023/08/10 08:11:03;;;;;;;9.52;1.80;;;18.90;99.90;;;;;;5010396;28;20030;-49
2023/08/10 08:13:29;;;;;;;8.93;1.70;;;18.60;99.90;;;;;;5010919;28;20077;-50
2023/08/10 08:15:54;;;;;;;9.77;2.13;;;18.80;99.90;;;;;;5010388;28;20034;-49
2023/08/10 08:18:42;;;;;;;8.30;1.85;;;19.30;99.90;;;;;;5010488;28;20030;-46
2023/08/10 08:21:10;;;;;;;3.63;1.85;;;19.80;99.90;;;;;;5010512;28;20079;-48
2023/08/10 08:23:35;;;;;;;4.22;2.20;;;19.90;99.90;;;;;;5009932;28;20022;-49
2023/08/10 08:26:01;;;;;;;7.05;1.50;;;20.10;99.90;;;;;;5010230;28;20021;-46
2023/08/10 08:28:26;;;;;;;4.03;1.80;;;20.10;99.90;;;;;;5010379;28;20034;-47
2023/08/10 08:30:52;;;;;;;4.43;1.75;;;19.90;99.90;;;;;;5010206;28;20037;-49
2023/08/10 08:33:18;;;;;;;5.72;1.70;;;19.70;99.90;;;;;;5010212;28;20037;-48
2023/08/10 08:35:45;;;;;;;5.45;2.03;;;19.80;99.90;;;;;;4992383;28;20443;-46
2023/08/10 08:38:13;;;;;;;5.55;1.70;;;20.40;99.60;;;;;;5010221;28;20400;-49
2023/08/10 08:40:39;;;;;;;7.18;1.73;;;21.70;97.90;;;;;;5010242;28;20022;-48
2023/08/10 08:43:05;;;;;;;5.15;1.67;;;23.40;96.30;;;;;;5010029;28;20045;-48
2023/08/10 08:45:31;;;;;;;3.05;1.60;;;24.80;92.50;;;;;;4992525;28;20018;-47
2023/08/10 08:47:57;;;;;;;4.32;1.63;;;25.00;91.00;;;;;;5010166;28;20105;-48
2023/08/10 08:50:24;;;;;;;6.75;1.98;;;24.70;88.10;;;;;;5010343;28;20069;-47
2023/08/10 08:52:50;;;;;;;5.55;1.48;;;24.90;87.30;;;;;;5010188;28;20388;-47
2023/08/10 08:55:17;;;;;;;3.47;1.23;;;25.80;88.70;;;;;;5009854;28;20094;-48
2023/08/10 08:57:42;;;;;;;8.55;1.90;;;27.00;84.90;;;;;;5010317;28;20551;-47
2023/08/10 09:00:09;;;;;;;3.42;1.15;;;27.60;80.70;;;;;;4992578;28;20034;-48
2023/08/10 09:02:35;;;;;;;5.53;1.52;;;27.20;79.70;;;;;;5010259;28;20018;-49
2023/08/10 09:05:02;;;;;;;6.45;1.90;;;26.40;78.90;;;;;;5009969;28;20029;-49
2023/08/10 09:07:31;;;;;;;5.63;1.48;;;25.30;79.30;;;;;;4992827;28;20116;-50
2023/08/10 09:09:57;;;;;;;5.65;1.30;;;25.50;78.20;;;;;;5010248;28;20030;-48
2023/08/10 09:12:29;;;;;;;2.65;1.30;;;24.90;79.30;;;;;;5010136;28;20444;-50
2023/08/10 09:15:03;;;;;;;5.85;1.55;;;24.50;81.90;;;;;;5009801;28;20535;-48
2023/08/10 09:17:30;;;;;;;5.55;1.42;;;24.00;81.40;;;;;;5010149;28;20026;-46
2023/08/10 09:19:56;;;;;;;6.45;1.88;;;24.20;81.40;;;;;;5009985;28;20034;-47
2023/08/10 09:22:34;;;;;;;4.38;1.65;;;24.00;81.00;;;;;;5009954;28;20033;-48
2023/08/10 09:25:00;;;;;;;3.22;1.42;;;23.50;83.30;;;;;;4995021;28;20025;-48
2023/08/10 09:27:27;;;;;;;3.88;1.38;;;23.00;83.60;;;;;;4996003;28;20033;-47
2023/08/10 09:30:01;;;;;;;6.80;1.60;;;22.50;87.20;;;;;;4995864;28;20033;-48
2023/08/10 09:32:27;;;;;;;6.55;1.90;;;22.20;86.70;;;;;;5013240;28;20054;-46
2023/08/10 09:34:53;;;;;;;3.75;1.33;;;22.00;88.10;;;;;;5010761;28;20058;-46
2023/08/10 09:37:20;;;;;;;6.63;1.90;;;23.50;85.50;;;;;;5005305;28;20057;-48
2023/08/10 09:39:46;;;;;;;5.03;1.63;;;25.20;83.80;;;;;;5013171;28;20018;-48
2023/08/10 09:42:12;;;;;;;5.65;1.65;;;26.70;77.30;;;;;;4995402;28;20481;-49
2023/08/10 09:44:45;;;;;;;5.97;1.73;;;26.50;76.30;;;;;;5012611;28;20118;-47
2023/08/10 09:47:12;;;;;;;7.45;1.50;;;27.70;76.60;;;;;;5013062;28;20497;-45
2023/08/10 09:50:01;;;;;;;5.97;1.60;;;28.90;74.50;;;;;;5013284;28;20026;-46
2023/08/10 09:52:27;;;;;;;4.35;1.42;;;30.20;70.80;;;;;;5013319;28;20396;-49
2023/08/10 09:54:55;;;;;;;6.40;1.40;;;30.90;68.80;;;;;;5012695;28;20046;-47
2023/08/10 09:57:23;;;;;;;3.83;1.40;;;31.50;66.90;;;;;;5013061;28;20489;-49
2023/08/10 09:59:49;;;;;;;3.60;1.27;;;32.40;62.40;;;;;;5013131;28;20100;-49
2023/08/10 10:02:17;;;;;;;2.90;1.23;;;32.50;56.40;;;;;;5012764;28;20544;-50
2023/08/10 10:04:43;;;;;;;4.05;1.77;;;32.70;57.60;;;;;;5012416;28;20113;-48
2023/08/10 10:07:11;;;;;;;6.32;1.58;;;33.10;57.00;;;;;;5012729;28;20034;-47
2023/08/10 10:09:38;;;;;;;5.40;1.67;;;32.90;58.70;;;;;;5012739;28;20176;-47
2023/08/10 10:12:09;;;;;;;7.35;1.70;;;33.20;54.80;;;;;;5012502;28;20029;-50
2023/08/10 10:14:55;;;;;;;3.55;1.50;;;32.90;56.60;;;;;;4994202;28;20029;-47
2023/08/10 10:17:21;;;;;;;3.50;1.30;;;32.40;56.60;;;;;;5004142;28;20038;-47
2023/08/10 10:19:50;;;;;;;4.18;1.50;;;32.20;56.30;;;;;;5012389;28;20037;-48
2023/08/10 10:22:17;;;;;;;3.85;1.60;;;31.30;55.90;;;;;;5012257;28;20034;-48
2023/08/10 10:24:43;;;;;;;6.72;1.58;;;30.30;56.70;;;;;;5011889;28;20030;-49
2023/08/10 10:27:13;;;;;;;7.30;1.60;;;28.90;60.50;;;;;;5012319;28;20430;-48
2023/08/10 10:29:51;;;;;;;5.50;1.73;;;27.80;61.20;;;;;;5012498;28;20457;-48
2023/08/10 10:32:19;;;;;;;7.05;1.80;;;26.90;62.20;;;;;;5012028;28;20036;-50
2023/08/10 10:34:46;;;;;;;4.72;1.73;;;26.80;62.40;;;;;;5011519;28;20026;-48
2023/08/10 10:37:18;;;;;;;5.40;1.60;;;25.90;63.60;;;;;;5012087;28;20033;-47
2023/08/10 10:39:45;;;;;;;5.07;1.83;;;25.80;67.80;;;;;;5012234;28;20026;-47
2023/08/10 10:42:12;;;;;;;4.20;1.58;;;27.00;65.80;;;;;;5012065;28;20058;-47
2023/08/10 10:44:58;;;;;;;3.78;1.40;;;27.50;64.50;;;;;;5011795;28;20050;-47
2023/08/10 10:47:39;;;;;;;4.45;1.80;;;26.90;62.90;;;;;;5004329;28;20014;-49
2023/08/10 10:50:24;;;;;;;3.88;1.73;;;26.10;64.40;;;;;;5012131;28;20018;-46
2023/08/10 10:52:54;;;;;;;3.88;1.77;;;27.00;69.20;;;;;;5011879;28;20040;-47
2023/08/10 10:55:21;;;;;;;3.60;1.52;;;28.50;64.00;;;;;;5011353;28;20116;-47
2023/08/10 10:57:48;;;;;;;5.90;1.67;;;29.20;62.80;;;;;;5012274;28;20069;-47
2023/08/10 11:00:14;;;;;;;4.05;1.75;;;30.00;64.80;;;;;;5011636;28;20034;-50
2023/08/10 11:02:40;;;;;;;3.45;1.30;;;31.00;62.50;;;;;;5011600;28;20031;-46
2023/08/10 11:05:16;;;;;;;3.83;1.33;;;31.40;58.50;;;;;;5011408;28;20057;-47
2023/08/10 11:07:49;;;;;;;4.63;1.52;;;32.10;56.80;;;;;;5011644;28;20022;-46
2023/08/10 11:10:17;;;;;;;3.53;1.38;;;31.10;56.80;;;;;;4993931;28;20587;-48
2023/08/10 11:12:44;;;;;;;4.15;1.30;;;31.10;55.60;;;;;;5011463;28;20041;-47
2023/08/10 11:15:12;;;;;;;5.03;1.75;;;31.50;55.90;;;;;;5011215;28;20025;-48
2023/08/10 11:17:39;;;;;;;6.13;1.75;;;32.10;55.10;;;;;;4993838;28;20447;-48
2023/08/10 11:20:14;;;;;;;4.47;1.77;;;32.30;53.80;;;;;;5011567;28;20154;-46
2023/08/10 11:22:41;;;;;;;3.20;1.60;;;32.40;56.30;;;;;;4993780;28;20018;-48
2023/08/10 11:25:14;;;;;;;1.95;1.10;;;32.40;56.90;;;;;;4993015;28;20527;-47
2023/08/10 11:27:41;;;;;;;2.95;1.38;;;32.40;54.40;;;;;;5011402;28;20511;-48
2023/08/10 11:30:09;;;;;;;2.88;1.20;;;32.60;53.50;;;;;;4993480;28;20072;-47
2023/08/10 11:32:41;;;;;;;5.35;1.50;;;32.00;54.60;;;;;;5011000;28;20041;-47
2023/08/10 11:35:12;;;;;;;3.85;1.40;;;32.80;53.40;;;;;;5010726;28;20034;-47
2023/08/10 11:37:39;;;;;;;4.53;1.50;;;33.10;52.20;;;;;;5011291;28;20030;-47
2023/08/10 11:40:19;;;;;;;3.35;1.35;;;31.80;54.10;;;;;;4993187;28;20493;-47
2023/08/10 11:43:04;;;;;;;3.00;1.30;;;30.20;55.40;;;;;;5010939;28;20030;-46
2023/08/10 11:45:30;;;;;;;10.35;1.70;;;29.50;57.70;;;;;;5010242;28;20105;-47
2023/08/10 11:48:00;;;;;;;9.45;1.80;;;29.70;60.60;;;;;;5010291;28;20037;-47
2023/08/10 11:50:29;;;;;;;9.07;1.60;;;30.30;58.80;;;;;;4993192;28;20113;-49
2023/08/10 11:52:55;;;;;;;7.45;2.35;;;30.90;60.30;;;;;;5010756;28;20025;-51
2023/08/10 11:55:22;;;;;;;7.30;2.17;;;31.70;58.30;;;;;;5010584;28;20029;-48
2023/08/10 11:57:53;;;;;;;7.32;1.90;;;32.30;56.20;;;;;;5010910;28;20033;-50
2023/08/10 12:00:23;;;;;;;5.13;1.77;;;32.70;53.60;;;;;;5010699;28;20037;-50
2023/08/10 12:03:15;;;;;;;7.40;1.63;;;33.30;53.20;;;;;;5010708;28;20024;-47
2023/08/10 12:05:43;;;;;;;3.25;1.40;;;32.70;55.50;;;;;;5010467;28;20092;-49
2023/08/10 12:08:11;;;;;;;4.93;1.80;;;33.30;53.50;;;;;;5010775;28;20429;-49
2023/08/10 12:10:40;;;;;;;6.77;1.73;;;32.40;51.80;;;;;;4992998;28;20013;-50
2023/08/10 12:13:08;;;;;;;5.20;1.52;;;31.90;53.40;;;;;;5010247;28;20508;-46
2023/08/10 12:15:37;;;;;;;3.83;1.40;;;31.60;56.40;;;;;;5010397;28;20022;-46
2023/08/10 12:18:05;;;;;;;5.43;1.37;;;31.40;57.70;;;;;;4992883;28;20539;-47
2023/08/10 12:20:31;;;;;;;8.25;2.45;;;30.60;56.60;;;;;;5010605;28;20261;-45
2023/08/10 12:22:56;;;;;;;4.05;1.40;;;30.50;55.20;;;;;;5010873;28;20329;-46
2023/08/10 12:25:22;;;;;;;3.28;1.40;;;30.10;59.00;;;;;;5009964;28;20072;-47
2023/08/10 12:27:48;;;;;;;12.48;1.70;;;29.70;55.20;;;;;;4992668;28;20026;-47
2023/08/10 12:30:15;;;;;;;4.90;1.58;;;29.00;56.60;;;;;;5010410;28;20026;-47
2023/08/10 12:32:40;;;;;;;3.90;1.70;;;28.70;56.10;;;;;;5010282;28;20060;-46
2023/08/10 12:35:06;;;;;;;4.00;1.35;;;28.70;59.20;;;;;;5009805;28;20030;-47
2023/08/10 12:37:31;;;;;;;4.35;1.67;;;28.50;57.40;;;;;;5010394;28;20087;-50
2023/08/10 12:39:57;;;;;;;5.20;1.63;;;28.00;59.10;;;;;;5010176;28;20030;-46
2023/08/10 12:42:24;;;;;;;2.28;1.38;;;28.10;61.00;;;;;;5010194;28;20508;-46
2023/08/10 12:44:50;;;;;;;3.70;1.50;;;27.90;59.90;;;;;;5010117;28;20026;-46